sensor_id;sensor_type;location;lat;lon;timestamp;pressure;altitude;pressure_sealevel;temperature;humidity
72285;BME280;60220;53.552;10.092;2023-05-24T00:02:25;101738.09;;;12.70;58.96
72285;BME280;60220;53.552;10.092;2023-05-24T00:04:52;101740.97;;;12.17;59.33
72285;BME280;60220;53.552;10.092;2023-05-24T00:07:19;101741.94;;;11.81;60.83
72285;BME280;60220;53.552;10.092;2023-05-24T00:09:45;101736.41;;;12.50;59.47
72285;BME280;60220;53.552;10.092;2023-05-24T00:12:16;101735.66;;;12.30;59.32
72285;BME280;60220;53.552;10.092;2023-05-24T00:14:42;101738.44;;;11.88;60.43
72285;BME280;60220;53.552;10.092;2023-05-24T00:17:11;101729.59;;;12.10;61.09
72285;BME280;60220;53.552;10.092;2023-05-24T00:19:39;101726.16;;;11.90;60.95
72285;BME280;60220;53.552;10.092;2023-05-24T00:22:07;101719.88;;;12.21;60.36
72285;BME280;60220;53.552;10.092;2023-05-24T00:24:33;101721.56;;;12.37;60.36
72285;BME280;60220;53.552;10.092;2023-05-24T00:27:00;101723.28;;;12.46;59.86
72285;BME280;60220;53.552;10.092;2023-05-24T00:29:28;101723.44;;;12.11;61.22
72285;BME280;60220;53.552;10.092;2023-05-24T00:31:55;101719.84;;;12.33;59.15
72285;BME280;60220;53.552;10.092;2023-05-24T00:34:24;101722.47;;;12.33;59.69
72285;BME280;60220;53.552;10.092;2023-05-24T00:36:52;101714.63;;;12.23;59.57
72285;BME280;60220;53.552;10.092;2023-05-24T00:39:19;101707.41;;;12.57;59.51
72285;BME280;60220;53.552;10.092;2023-05-24T00:41:48;101710.00;;;12.67;59.52
72285;BME280;60220;53.552;10.092;2023-05-24T00:44:14;101714.28;;;12.83;59.36
72285;BME280;60220;53.552;10.092;2023-05-24T00:46:43;101706.50;;;12.67;59.16
72285;BME280;60220;53.552;10.092;2023-05-24T00:49:09;101708.38;;;12.40;59.24
72285;BME280;60220;53.552;10.092;2023-05-24T00:51:36;101701.50;;;12.15;59.48
72285;BME280;60220;53.552;10.092;2023-05-24T00:54:03;101706.47;;;12.73;59.51
72285;BME280;60220;53.552;10.092;2023-05-24T00:56:31;101697.81;;;12.49;59.31
72285;BME280;60220;53.552;10.092;2023-05-24T00:58:58;101702.25;;;12.41;60.08
72285;BME280;60220;53.552;10.092;2023-05-24T01:01:25;101698.72;;;12.50;59.38
72285;BME280;60220;53.552;10.092;2023-05-24T01:03:56;101698.63;;;12.61;59.56
72285;BME280;60220;53.552;10.092;2023-05-24T01:06:24;101694.44;;;12.29;60.30
72285;BME280;60220;53.552;10.092;2023-05-24T01:09:07;101692.56;;;12.46;59.57
72285;BME280;60220;53.552;10.092;2023-05-24T01:11:44;101685.59;;;12.39;60.21
72285;BME280;60220;53.552;10.092;2023-05-24T01:14:24;101683.00;;;12.29;60.19
72285;BME280;60220;53.552;10.092;2023-05-24T01:17:01;101694.50;;;12.14;61.54
72285;BME280;60220;53.552;10.092;2023-05-24T01:19:42;101689.41;;;11.50;62.79
72285;BME280;60220;53.552;10.092;2023-05-24T01:22:30;101684.84;;;12.12;61.67
72285;BME280;60220;53.552;10.092;2023-05-24T01:25:03;101680.34;;;12.39;61.79
72285;BME280;60220;53.552;10.092;2023-05-24T01:27:35;101684.00;;;12.05;61.68
72285;BME280;60220;53.552;10.092;2023-05-24T01:30:06;101682.19;;;12.19;61.95
72285;BME280;60220;53.552;10.092;2023-05-24T01:32:33;101689.03;;;12.50;60.97
72285;BME280;60220;53.552;10.092;2023-05-24T01:35:02;101686.56;;;12.19;61.14
72285;BME280;60220;53.552;10.092;2023-05-24T01:37:29;101696.25;;;12.11;61.19
72285;BME280;60220;53.552;10.092;2023-05-24T01:39:56;101689.06;;;12.41;61.32
72285;BME280;60220;53.552;10.092;2023-05-24T01:42:25;101687.63;;;11.74;62.46
72285;BME280;60220;53.552;10.092;2023-05-24T01:45:03;101679.47;;;12.31;62.09
72285;BME280;60220;53.552;10.092;2023-05-24T01:47:39;101689.91;;;12.54;61.76
72285;BME280;60220;53.552;10.092;2023-05-24T01:50:14;101695.72;;;12.99;60.86
72285;BME280;60220;53.552;10.092;2023-05-24T01:52:43;101698.38;;;12.99;59.84
72285;BME280;60220;53.552;10.092;2023-05-24T01:55:12;101692.47;;;12.62;60.88
72285;BME280;60220;53.552;10.092;2023-05-24T01:57:43;101692.59;;;12.43;61.60
72285;BME280;60220;53.552;10.092;2023-05-24T02:00:17;101692.38;;;12.77;60.11
72285;BME280;60220;53.552;10.092;2023-05-24T02:02:46;101684.56;;;12.63;61.08
72285;BME280;60220;53.552;10.092;2023-05-24T02:05:13;101687.06;;;12.83;60.24
72285;BME280;60220;53.552;10.092;2023-05-24T02:07:40;101690.56;;;12.80;60.15
72285;BME280;60220;53.552;10.092;2023-05-24T02:10:07;101688.56;;;13.17;60.08
72285;BME280;60220;53.552;10.092;2023-05-24T02:12:34;101693.50;;;12.38;60.83
72285;BME280;60220;53.552;10.092;2023-05-24T02:15:00;101687.19;;;12.65;61.17
72285;BME280;60220;53.552;10.092;2023-05-24T02:17:28;101689.50;;;13.15;59.86
72285;BME280;60220;53.552;10.092;2023-05-24T02:19:57;101690.63;;;12.79;60.69
72285;BME280;60220;53.552;10.092;2023-05-24T02:22:24;101692.38;;;12.80;60.62
72285;BME280;60220;53.552;10.092;2023-05-24T02:24:51;101684.56;;;12.65;60.92
72285;BME280;60220;53.552;10.092;2023-05-24T02:27:20;101680.16;;;12.70;60.52
72285;BME280;60220;53.552;10.092;2023-05-24T02:29:46;101695.66;;;13.06;61.51
72285;BME280;60220;53.552;10.092;2023-05-24T02:32:13;101683.50;;;12.90;60.88
72285;BME280;60220;53.552;10.092;2023-05-24T02:34:43;101683.84;;;12.35;61.80
72285;BME280;60220;53.552;10.092;2023-05-24T02:37:10;101681.19;;;12.44;62.45
72285;BME280;60220;53.552;10.092;2023-05-24T02:39:40;101687.91;;;12.86;61.46
72285;BME280;60220;53.552;10.092;2023-05-24T02:42:09;101689.66;;;12.86;62.97
72285;BME280;60220;53.552;10.092;2023-05-24T02:44:36;101692.09;;;13.10;61.50
72285;BME280;60220;53.552;10.092;2023-05-24T02:47:03;101693.75;;;13.26;61.27
72285;BME280;60220;53.552;10.092;2023-05-24T02:49:32;101691.34;;;12.98;61.58
72285;BME280;60220;53.552;10.092;2023-05-24T02:52:00;101689.50;;;13.09;61.86
72285;BME280;60220;53.552;10.092;2023-05-24T02:54:26;101682.00;;;12.52;62.50
72285;BME280;60220;53.552;10.092;2023-05-24T02:56:53;101685.16;;;13.03;61.84
72285;BME280;60220;53.552;10.092;2023-05-24T02:59:21;101686.81;;;13.16;61.86
72285;BME280;60220;53.552;10.092;2023-05-24T03:01:49;101692.09;;;13.10;61.89
72285;BME280;60220;53.552;10.092;2023-05-24T03:04:16;101681.72;;;12.92;62.03
72285;BME280;60220;53.552;10.092;2023-05-24T03:06:42;101680.66;;;13.16;61.82
72285;BME280;60220;53.552;10.092;2023-05-24T03:09:11;101689.38;;;13.25;61.72
72285;BME280;60220;53.552;10.092;2023-05-24T03:11:38;101686.13;;;12.93;61.96
72285;BME280;60220;53.552;10.092;2023-05-24T03:14:04;101678.31;;;12.78;62.73
72285;BME280;60220;53.552;10.092;2023-05-24T03:16:34;101680.72;;;13.13;62.29
72285;BME280;60220;53.552;10.092;2023-05-24T03:19:03;101676.03;;;12.17;64.20
72285;BME280;60220;53.552;10.092;2023-05-24T03:21:30;101673.94;;;12.75;63.87
72285;BME280;60220;53.552;10.092;2023-05-24T03:23:57;101671.56;;;12.34;64.67
72285;BME280;60220;53.552;10.092;2023-05-24T03:26:25;101669.75;;;12.42;65.16
72285;BME280;60220;53.552;10.092;2023-05-24T03:28:52;101659.19;;;12.45;64.73
72285;BME280;60220;53.552;10.092;2023-05-24T03:31:19;101670.25;;;12.96;64.24
72285;BME280;60220;53.552;10.092;2023-05-24T03:33:48;101675.75;;;12.67;64.77
72285;BME280;60220;53.552;10.092;2023-05-24T03:36:15;101674.69;;;12.94;64.78
72285;BME280;60220;53.552;10.092;2023-05-24T03:38:44;101680.84;;;12.94;63.41
72285;BME280;60220;53.552;10.092;2023-05-24T03:41:13;101678.28;;;12.81;64.78
72285;BME280;60220;53.552;10.092;2023-05-24T03:43:44;101685.09;;;13.12;63.80
72285;BME280;60220;53.552;10.092;2023-05-24T03:46:13;101680.09;;;12.73;65.03
72285;BME280;60220;53.552;10.092;2023-05-24T03:48:42;101679.34;;;12.51;66.29
72285;BME280;60220;53.552;10.092;2023-05-24T03:51:09;101689.66;;;12.89;65.26
72285;BME280;60220;53.552;10.092;2023-05-24T03:53:35;101686.03;;;13.01;64.14
72285;BME280;60220;53.552;10.092;2023-05-24T03:56:05;101691.16;;;13.23;64.42
72285;BME280;60220;53.552;10.092;2023-05-24T03:58:34;101689.53;;;13.04;64.71
72285;BME280;60220;53.552;10.092;2023-05-24T04:01:04;101687.97;;;12.77;65.51
72285;BME280;60220;53.552;10.092;2023-05-24T04:03:31;101693.97;;;12.96;65.38
72285;BME280;60220;53.552;10.092;2023-05-24T04:05:58;101689.50;;;13.09;65.15
72285;BME280;60220;53.552;10.092;2023-05-24T04:08:27;101694.31;;;13.62;63.26
72285;BME280;60220;53.552;10.092;2023-05-24T04:10:54;101687.56;;;13.32;63.84
72285;BME280;60220;53.552;10.092;2023-05-24T04:13:23;101689.63;;;12.93;65.15
72285;BME280;60220;53.552;10.092;2023-05-24T04:15:49;101688.75;;;12.93;66.45
72285;BME280;60220;53.552;10.092;2023-05-24T04:18:20;101697.22;;;13.31;65.16
72285;BME280;60220;53.552;10.092;2023-05-24T04:20:49;101695.66;;;13.06;66.25
72285;BME280;60220;53.552;10.092;2023-05-24T04:23:17;101699.13;;;13.17;66.19
72285;BME280;60220;53.552;10.092;2023-05-24T04:25:44;101700.94;;;13.09;65.82
72285;BME280;60220;53.552;10.092;2023-05-24T04:28:11;101695.66;;;13.09;66.85
72285;BME280;60220;53.552;10.092;2023-05-24T04:30:39;101704.44;;;13.10;66.81
72285;BME280;60220;53.552;10.092;2023-05-24T04:33:06;101705.84;;;12.30;69.17
72285;BME280;60220;53.552;10.092;2023-05-24T04:35:34;101695.09;;;12.62;69.74
72285;BME280;60220;53.552;10.092;2023-05-24T04:38:01;101698.47;;;12.85;68.54
72285;BME280;60220;53.552;10.092;2023-05-24T04:40:30;101706.84;;;11.94;70.72
72285;BME280;60220;53.552;10.092;2023-05-24T04:42:57;101706.56;;;12.51;70.92
72285;BME280;60220;53.552;10.092;2023-05-24T04:45:23;101718.66;;;12.86;69.07
72285;BME280;60220;53.552;10.092;2023-05-24T04:47:50;101712.63;;;12.69;69.99
72285;BME280;60220;53.552;10.092;2023-05-24T04:50:17;101721.50;;;12.54;70.61
72285;BME280;60220;53.552;10.092;2023-05-24T04:52:45;101715.94;;;12.98;70.83
72285;BME280;60220;53.552;10.092;2023-05-24T04:55:11;101722.56;;;12.15;72.53
72285;BME280;60220;53.552;10.092;2023-05-24T04:57:38;101719.78;;;12.45;72.65
72285;BME280;60220;53.552;10.092;2023-05-24T05:00:07;101725.00;;;12.55;73.01
72285;BME280;60220;53.552;10.092;2023-05-24T05:02:34;101720.63;;;12.54;72.47
72285;BME280;60220;53.552;10.092;2023-05-24T05:05:01;101725.03;;;12.50;72.68
72285;BME280;60220;53.552;10.092;2023-05-24T05:07:29;101722.41;;;12.48;72.93
72285;BME280;60220;53.552;10.092;2023-05-24T05:09:57;101733.75;;;12.58;72.48
72285;BME280;60220;53.552;10.092;2023-05-24T05:12:26;101739.13;;;12.35;72.48
72285;BME280;60220;53.552;10.092;2023-05-24T05:14:52;101738.44;;;11.82;75.09
72285;BME280;60220;53.552;10.092;2023-05-24T05:17:20;101745.34;;;12.25;73.67
72285;BME280;60220;53.552;10.092;2023-05-24T05:19:46;101748.91;;;11.97;75.78
72285;BME280;60220;53.552;10.092;2023-05-24T05:22:13;101755.06;;;11.93;76.14
72285;BME280;60220;53.552;10.092;2023-05-24T05:24:40;101743.66;;;11.98;75.72
72285;BME280;60220;53.552;10.092;2023-05-24T05:27:08;101750.63;;;12.19;74.57
72285;BME280;60220;53.552;10.092;2023-05-24T05:29:35;101748.97;;;11.85;76.40
72285;BME280;60220;53.552;10.092;2023-05-24T05:32:05;101741.00;;;12.14;75.28
72285;BME280;60220;53.552;10.092;2023-05-24T05:34:31;101738.34;;;12.12;75.87
72285;BME280;60220;53.552;10.092;2023-05-24T05:36:58;101742.81;;;11.66;77.04
72285;BME280;60220;53.552;10.092;2023-05-24T05:39:25;101749.78;;;11.96;77.27
72285;BME280;60220;53.552;10.092;2023-05-24T05:41:51;101737.41;;;12.28;75.24
72285;BME280;60220;53.552;10.092;2023-05-24T05:44:19;101742.63;;;12.36;75.27
72285;BME280;60220;53.552;10.092;2023-05-24T05:46:49;101743.50;;;12.36;75.31
72285;BME280;60220;53.552;10.092;2023-05-24T05:49:15;101748.75;;;12.41;74.46
72285;BME280;60220;53.552;10.092;2023-05-24T05:51:45;101754.00;;;12.48;75.14
72285;BME280;60220;53.552;10.092;2023-05-24T05:54:12;101754.97;;;12.28;75.66
72285;BME280;60220;53.552;10.092;2023-05-24T05:56:43;101757.50;;;12.50;74.14
72285;BME280;60220;53.552;10.092;2023-05-24T05:59:12;101760.78;;;12.92;73.22
72285;BME280;60220;53.552;10.092;2023-05-24T06:01:41;101766.06;;;12.95;73.18
72285;BME280;60220;53.552;10.092;2023-05-24T06:04:08;101765.47;;;12.35;74.62
72285;BME280;60220;53.552;10.092;2023-05-24T06:06:38;101765.25;;;12.79;74.27
72285;BME280;60220;53.552;10.092;2023-05-24T06:09:05;101775.81;;;12.70;73.51
72285;BME280;60220;53.552;10.092;2023-05-24T06:11:31;101772.06;;;13.17;73.18
72285;BME280;60220;53.552;10.092;2023-05-24T06:13:58;101768.59;;;13.06;72.20
72285;BME280;60220;53.552;10.092;2023-05-24T06:16:25;101773.03;;;12.99;72.31
72285;BME280;60220;53.552;10.092;2023-05-24T06:18:53;101774.69;;;13.17;72.57
72285;BME280;60220;53.552;10.092;2023-05-24T06:21:20;101772.63;;;13.57;70.60
72285;BME280;60220;53.552;10.092;2023-05-24T06:23:47;101770.63;;;13.80;70.04
72285;BME280;60220;53.552;10.092;2023-05-24T06:26:14;101779.94;;;13.21;70.23
72285;BME280;60220;53.552;10.092;2023-05-24T06:28:40;101779.41;;;12.56;72.54
72285;BME280;60220;53.552;10.092;2023-05-24T06:31:07;101776.63;;;12.89;73.32
72285;BME280;60220;53.552;10.092;2023-05-24T06:33:34;101785.13;;;13.33;71.91
72285;BME280;60220;53.552;10.092;2023-05-24T06:36:02;101786.94;;;13.28;72.38
72285;BME280;60220;53.552;10.092;2023-05-24T06:38:29;101793.16;;;13.11;73.19
72285;BME280;60220;53.552;10.092;2023-05-24T06:40:59;101797.59;;;13.12;72.93
72285;BME280;60220;53.552;10.092;2023-05-24T06:43:26;101802.72;;;13.31;71.49
72285;BME280;60220;53.552;10.092;2023-05-24T06:45:53;101804.84;;;13.91;70.70
72285;BME280;60220;53.552;10.092;2023-05-24T06:48:20;101809.91;;;13.02;71.33
72285;BME280;60220;53.552;10.092;2023-05-24T06:50:49;101813.78;;;13.76;70.03
72285;BME280;60220;53.552;10.092;2023-05-24T06:53:17;101816.22;;;13.97;68.83
72285;BME280;60220;53.552;10.092;2023-05-24T06:55:46;101823.94;;;14.17;68.62
72285;BME280;60220;53.552;10.092;2023-05-24T06:58:13;101824.72;;;14.27;67.94
72285;BME280;60220;53.552;10.092;2023-05-24T07:00:41;101826.66;;;14.09;68.02
72285;BME280;60220;53.552;10.092;2023-05-24T07:03:08;101821.53;;;13.94;68.70
72285;BME280;60220;53.552;10.092;2023-05-24T07:05:37;101824.97;;;14.02;68.19
72285;BME280;60220;53.552;10.092;2023-05-24T07:08:06;101829.38;;;14.03;67.57
72285;BME280;60220;53.552;10.092;2023-05-24T07:10:35;101826.59;;;14.15;67.41
72285;BME280;60220;53.552;10.092;2023-05-24T07:13:03;101830.06;;;14.20;66.69
72285;BME280;60220;53.552;10.092;2023-05-24T07:15:31;101821.13;;;14.31;66.27
72285;BME280;60220;53.552;10.092;2023-05-24T07:17:57;101824.66;;;13.38;68.46
72285;BME280;60220;53.552;10.092;2023-05-24T07:20:24;101826.66;;;14.09;67.66
72285;BME280;60220;53.552;10.092;2023-05-24T07:22:51;101831.03;;;14.13;66.08
72285;BME280;60220;53.552;10.092;2023-05-24T07:25:18;101832.72;;;14.19;66.29
72285;BME280;60220;53.552;10.092;2023-05-24T07:27:46;101826.59;;;14.15;67.12
72285;BME280;60220;53.552;10.092;2023-05-24T07:30:15;101822.50;;;14.65;66.26
72285;BME280;60220;53.552;10.092;2023-05-24T07:32:44;101825.31;;;14.53;65.93
72285;BME280;60220;53.552;10.092;2023-05-24T07:35:11;101832.25;;;14.60;64.41
72285;BME280;60220;53.552;10.092;2023-05-24T07:37:38;101832.44;;;13.52;68.37
72285;BME280;60220;53.552;10.092;2023-05-24T07:40:06;101831.19;;;13.95;67.73
72285;BME280;60220;53.552;10.092;2023-05-24T07:42:38;101838.94;;;14.13;67.09
72285;BME280;60220;53.552;10.092;2023-05-24T07:45:07;101840.41;;;14.42;66.26
72285;BME280;60220;53.552;10.092;2023-05-24T07:47:34;101837.06;;;14.25;65.59
72285;BME280;60220;53.552;10.092;2023-05-24T07:50:04;101845.00;;;14.25;65.57
72285;BME280;60220;53.552;10.092;2023-05-24T07:52:33;101842.03;;;14.55;64.91
72285;BME280;60220;53.552;10.092;2023-05-24T07:55:01;101845.34;;;14.72;63.71
72285;BME280;60220;53.552;10.092;2023-05-24T07:57:28;101847.47;;;14.43;65.02
72285;BME280;60220;53.552;10.092;2023-05-24T07:59:57;101850.75;;;14.60;65.20
72285;BME280;60220;53.552;10.092;2023-05-24T08:02:25;101852.69;;;14.46;65.10
72285;BME280;60220;53.552;10.092;2023-05-24T08:04:52;101856.03;;;14.63;65.78
72285;BME280;60220;53.552;10.092;2023-05-24T08:07:18;101854.50;;;14.41;66.62
72285;BME280;60220;53.552;10.092;2023-05-24T08:09:47;101858.38;;;14.06;66.88
72285;BME280;60220;53.552;10.092;2023-05-24T08:12:16;101853.91;;;14.11;68.43
72285;BME280;60220;53.552;10.092;2023-05-24T08:14:43;101862.47;;;14.35;67.47
72285;BME280;60220;53.552;10.092;2023-05-24T08:17:09;101865.19;;;14.29;68.43
72285;BME280;60220;53.552;10.092;2023-05-24T08:19:37;101865.28;;;14.19;68.27
72285;BME280;60220;53.552;10.092;2023-05-24T08:22:04;101864.16;;;14.46;68.37
72285;BME280;60220;53.552;10.092;2023-05-24T08:24:31;101875.53;;;14.53;68.54
72285;BME280;60220;53.552;10.092;2023-05-24T08:26:58;101869.66;;;14.22;68.78
72285;BME280;60220;53.552;10.092;2023-05-24T08:29:26;101874.22;;;14.06;69.13
72285;BME280;60220;53.552;10.092;2023-05-24T08:31:53;101875.53;;;14.50;69.26
72285;BME280;60220;53.552;10.092;2023-05-24T08:34:22;101879.97;;;14.49;69.39
72285;BME280;60220;53.552;10.092;2023-05-24T08:36:50;101871.41;;;15.01;68.32
72285;BME280;60220;53.552;10.092;2023-05-24T08:39:18;101869.69;;;14.98;66.55
72285;BME280;60220;53.552;10.092;2023-05-24T08:41:45;101869.72;;;14.95;65.98
72285;BME280;60220;53.552;10.092;2023-05-24T08:44:12;101871.25;;;15.10;66.26
72285;BME280;60220;53.552;10.092;2023-05-24T08:46:39;101878.22;;;15.19;65.29
72285;BME280;60220;53.552;10.092;2023-05-24T08:49:06;101876.69;;;15.02;65.61
72285;BME280;60220;53.552;10.092;2023-05-24T08:51:39;101880.06;;;15.12;65.59
72285;BME280;60220;53.552;10.092;2023-05-24T08:54:08;101891.09;;;14.77;66.62
72285;BME280;60220;53.552;10.092;2023-05-24T08:56:39;101885.03;;;14.68;66.39
72285;BME280;60220;53.552;10.092;2023-05-24T08:59:07;101886.97;;;15.24;65.68
72285;BME280;60220;53.552;10.092;2023-05-24T09:01:36;101892.34;;;15.18;65.01
72285;BME280;60220;53.552;10.092;2023-05-24T09:04:07;101890.44;;;15.29;64.92
72285;BME280;60220;53.552;10.092;2023-05-24T09:06:34;101890.28;;;15.38;63.43
72285;BME280;60220;53.552;10.092;2023-05-24T09:09:02;101887.13;;;15.12;63.04
72285;BME280;60220;53.552;10.092;2023-05-24T09:11:31;101890.16;;;14.84;65.02
72285;BME280;60220;53.552;10.092;2023-05-24T09:14:01;101893.66;;;15.49;64.03
72285;BME280;60220;53.552;10.092;2023-05-24T09:16:28;101895.81;;;15.82;62.61
72285;BME280;60220;53.552;10.092;2023-05-24T09:18:57;101889.22;;;15.51;62.59
72285;BME280;60220;53.552;10.092;2023-05-24T09:21:24;101900.09;;;15.89;61.73
72285;BME280;60220;53.552;10.092;2023-05-24T09:23:51;101897.16;;;16.06;60.33
72285;BME280;60220;53.552;10.092;2023-05-24T09:26:19;101892.84;;;16.01;60.76
72285;BME280;60220;53.552;10.092;2023-05-24T09:28:47;101896.69;;;16.33;59.81
72285;BME280;60220;53.552;10.092;2023-05-24T09:31:15;101900.69;;;16.54;59.73
72285;BME280;60220;53.552;10.092;2023-05-24T09:33:46;101904.66;;;16.32;59.50
72285;BME280;60220;53.552;10.092;2023-05-24T09:36:15;101907.66;;;16.61;59.46
72285;BME280;60220;53.552;10.092;2023-05-24T09:38:42;101906.22;;;16.42;58.09
72285;BME280;60220;53.552;10.092;2023-05-24T09:41:09;101910.47;;;16.02;58.04
72285;BME280;60220;53.552;10.092;2023-05-24T09:43:48;101903.25;;;15.58;58.80
72285;BME280;60220;53.552;10.092;2023-05-24T09:46:17;101905.69;;;15.71;59.22
72285;BME280;60220;53.552;10.092;2023-05-24T09:48:54;101902.72;;;15.33;59.33
72285;BME280;60220;53.552;10.092;2023-05-24T09:51:24;101899.03;;;15.43;59.84
72285;BME280;60220;53.552;10.092;2023-05-24T09:53:55;101903.88;;;16.25;56.98
72285;BME280;60220;53.552;10.092;2023-05-24T09:56:22;101916.81;;;15.93;57.07
72285;BME280;60220;53.552;10.092;2023-05-24T09:58:52;101910.75;;;15.86;58.32
72285;BME280;60220;53.552;10.092;2023-05-24T10:01:21;101911.44;;;16.48;57.10
72285;BME280;60220;53.552;10.092;2023-05-24T10:03:52;101917.50;;;16.53;57.14
72285;BME280;60220;53.552;10.092;2023-05-24T10:06:21;101919.34;;;16.96;53.71
72285;BME280;60220;53.552;10.092;2023-05-24T10:08:51;101912.50;;;16.36;54.33
72285;BME280;60220;53.552;10.092;2023-05-24T10:11:18;101910.94;;;16.26;54.76
72285;BME280;60220;53.552;10.092;2023-05-24T10:13:46;101919.31;;;16.50;55.63
72285;BME280;60220;53.552;10.092;2023-05-24T10:16:16;101913.28;;;16.43;56.46
72285;BME280;60220;53.552;10.092;2023-05-24T10:18:43;101916.47;;;16.13;55.92
72285;BME280;60220;53.552;10.092;2023-05-24T10:21:12;101914.53;;;16.71;54.73
72285;BME280;60220;53.552;10.092;2023-05-24T10:23:43;101914.88;;;16.98;55.45
72285;BME280;60220;53.552;10.092;2023-05-24T10:26:11;101917.88;;;16.33;57.18
72285;BME280;60220;53.552;10.092;2023-05-24T10:28:40;101913.50;;;16.31;54.09
72285;BME280;60220;53.552;10.092;2023-05-24T10:31:13;101918.19;;;16.15;56.83
72285;BME280;60220;53.552;10.092;2023-05-24T10:33:43;101919.31;;;16.01;55.89
72285;BME280;60220;53.552;10.092;2023-05-24T10:36:13;101924.84;;;16.87;54.62
72285;BME280;60220;53.552;10.092;2023-05-24T10:38:41;101929.00;;;16.52;55.09
72285;BME280;60220;53.552;10.092;2023-05-24T10:41:08;101927.63;;;16.79;55.11
72285;BME280;60220;53.552;10.092;2023-05-24T10:43:36;101924.41;;;17.08;54.59
72285;BME280;60220;53.552;10.092;2023-05-24T10:46:03;101919.09;;;17.08;53.58
72285;BME280;60220;53.552;10.092;2023-05-24T10:48:34;101922.53;;;17.13;53.02
72285;BME280;60220;53.552;10.092;2023-05-24T10:51:30;101924.19;;;17.57;52.75
72285;BME280;60220;53.552;10.092;2023-05-24T10:54:17;101922.38;;;17.60;53.18
72285;BME280;60220;53.552;10.092;2023-05-24T10:56:45;101918.59;;;17.29;52.11
72285;BME280;60220;53.552;10.092;2023-05-24T10:59:23;101927.13;;;16.60;53.37
72285;BME280;60220;53.552;10.092;2023-05-24T11:01:54;101925.41;;;17.42;52.13
72285;BME280;60220;53.552;10.092;2023-05-24T11:04:24;101919.47;;;17.70;51.54
72285;BME280;60220;53.552;10.092;2023-05-24T11:06:59;101923.91;;;16.42;54.08
72285;BME280;60220;53.552;10.092;2023-05-24T11:09:27;101912.59;;;16.33;54.78
72285;BME280;60220;53.552;10.092;2023-05-24T11:11:56;101915.28;;;17.19;53.49
72285;BME280;60220;53.552;10.092;2023-05-24T11:14:24;101913.00;;;17.81;51.77
72285;BME280;60220;53.552;10.092;2023-05-24T11:16:52;101914.84;;;17.39;53.49
72285;BME280;60220;53.552;10.092;2023-05-24T11:19:21;101913.16;;;17.75;52.03
72285;BME280;60220;53.552;10.092;2023-05-24T11:21:51;101917.59;;;17.35;51.75
72285;BME280;60220;53.552;10.092;2023-05-24T11:24:20;101921.44;;;17.21;53.19
72285;BME280;60220;53.552;10.092;2023-05-24T11:26:50;101922.84;;;16.01;55.30
72285;BME280;60220;53.552;10.092;2023-05-24T11:29:17;101917.31;;;17.08;53.95
72285;BME280;60220;53.552;10.092;2023-05-24T11:31:50;101920.13;;;16.99;53.81
72285;BME280;60220;53.552;10.092;2023-05-24T11:34:17;101919.47;;;16.90;54.14
72285;BME280;60220;53.552;10.092;2023-05-24T11:36:44;101924.41;;;17.08;53.75
72285;BME280;60220;53.552;10.092;2023-05-24T11:39:13;101920.03;;;17.45;53.35
72285;BME280;60220;53.552;10.092;2023-05-24T11:41:42;101927.34;;;17.74;52.82
72285;BME280;60220;53.552;10.092;2023-05-24T11:44:10;101928.31;;;16.89;53.70
72285;BME280;60220;53.552;10.092;2023-05-24T11:46:39;101925.13;;;17.54;53.04
72285;BME280;60220;53.552;10.092;2023-05-24T11:49:11;101927.09;;;17.46;51.32
72285;BME280;60220;53.552;10.092;2023-05-24T11:51:39;101926.63;;;17.68;51.16
72285;BME280;60220;53.552;10.092;2023-05-24T11:54:05;101928.22;;;17.35;51.26
72285;BME280;60220;53.552;10.092;2023-05-24T11:56:32;101930.50;;;17.51;52.03
72285;BME280;60220;53.552;10.092;2023-05-24T11:59:08;101930.25;;;18.00;52.11
72285;BME280;60220;53.552;10.092;2023-05-24T12:01:35;101933.25;;;17.07;51.89
72285;BME280;60220;53.552;10.092;2023-05-24T12:04:05;101943.22;;;17.77;50.60
72285;BME280;60220;53.552;10.092;2023-05-24T12:06:37;101945.75;;;17.02;51.26
72285;BME280;60220;53.552;10.092;2023-05-24T12:09:04;101939.38;;;17.09;51.20
72285;BME280;60220;53.552;10.092;2023-05-24T12:11:33;101947.69;;;17.34;51.72
72285;BME280;60220;53.552;10.092;2023-05-24T12:14:00;101945.13;;;17.72;51.17
72285;BME280;60220;53.552;10.092;2023-05-24T12:16:28;101945.34;;;17.20;52.82
72285;BME280;60220;53.552;10.092;2023-05-24T12:18:57;101947.44;;;17.86;51.63
72285;BME280;60220;53.552;10.092;2023-05-24T12:21:24;101946.00;;;17.73;50.81
72285;BME280;60220;53.552;10.092;2023-05-24T12:23:51;101942.13;;;17.86;50.24
72285;BME280;60220;53.552;10.092;2023-05-24T12:26:17;101951.97;;;17.42;52.00
72285;BME280;60220;53.552;10.092;2023-05-24T12:28:46;101943.41;;;18.05;49.15
72285;BME280;60220;53.552;10.092;2023-05-24T12:31:18;101943.28;;;17.74;49.62
72285;BME280;60220;53.552;10.092;2023-05-24T12:33:46;101951.53;;;17.62;51.95
72285;BME280;60220;53.552;10.092;2023-05-24T12:36:13;101953.56;;;17.49;51.24
72285;BME280;60220;53.552;10.092;2023-05-24T12:38:42;101948.66;;;17.71;50.69
72285;BME280;60220;53.552;10.092;2023-05-24T12:41:09;101954.56;;;18.55;49.54
72285;BME280;60220;53.552;10.092;2023-05-24T12:43:37;101961.53;;;18.59;50.28
72285;BME280;60220;53.552;10.092;2023-05-24T12:46:04;101953.44;;;18.63;49.33
72285;BME280;60220;53.552;10.092;2023-05-24T12:48:32;101961.41;;;18.63;47.02